sensor_id;sensor_type;location;lat;lon;timestamp;pressure;altitude;pressure_sealevel;temperature;humidity
73455;BME280;61690;51.824;6.306;2023-03-22T00:00:07;100903.50;;;18.27;48.15
73455;BME280;61690;51.824;6.306;2023-03-22T00:02:37;100903.50;;;18.27;48.64
73455;BME280;61690;51.824;6.306;2023-03-22T00:05:02;100900.13;;;18.25;48.31
73455;BME280;61690;51.824;6.306;2023-03-22T00:07:28;100894.88;;;18.25;48.37
73455;BME280;61690;51.824;6.306;2023-03-22T00:09:53;100895.72;;;18.26;48.40
73455;BME280;61690;51.824;6.306;2023-03-22T00:12:18;100894.78;;;18.27;48.33
73455;BME280;61690;51.824;6.306;2023-03-22T00:14:43;100897.50;;;18.25;48.54
73455;BME280;61690;51.824;6.306;2023-03-22T00:17:09;100900.03;;;18.27;48.46
73455;BME280;61690;51.824;6.306;2023-03-22T00:19:35;100892.22;;;18.25;48.72
73455;BME280;61690;51.824;6.306;2023-03-22T00:22:01;100893.19;;;18.24;48.40
73455;BME280;61690;51.824;6.306;2023-03-22T00:24:29;100889.81;;;18.22;48.72
73455;BME280;61690;51.824;6.306;2023-03-22T00:26:54;100889.81;;;18.22;48.34
73455;BME280;61690;51.824;6.306;2023-03-22T00:29:20;100888.09;;;18.21;48.35
73455;BME280;61690;51.824;6.306;2023-03-22T00:31:46;100882.75;;;18.22;48.71
73455;BME280;61690;51.824;6.306;2023-03-22T00:34:14;100882.84;;;18.21;48.13
73455;BME280;61690;51.824;6.306;2023-03-22T00:36:39;100885.47;;;18.21;48.30
73455;BME280;61690;51.824;6.306;2023-03-22T00:39:05;100884.63;;;18.20;48.82
73455;BME280;61690;51.824;6.306;2023-03-22T00:41:30;100877.56;;;18.21;48.18
73455;BME280;61690;51.824;6.306;2023-03-22T00:43:55;100881.03;;;18.21;48.55
73455;BME280;61690;51.824;6.306;2023-03-22T00:46:21;100882.00;;;18.20;48.65
73455;BME280;61690;51.824;6.306;2023-03-22T00:48:47;100863.66;;;18.19;48.53
73455;BME280;61690;51.824;6.306;2023-03-22T00:51:13;100863.66;;;18.19;48.30
73455;BME280;61690;51.824;6.306;2023-03-22T00:53:39;100872.53;;;18.18;48.52
73455;BME280;61690;51.824;6.306;2023-03-22T00:56:05;100857.66;;;18.17;48.44
73455;BME280;61690;51.824;6.306;2023-03-22T00:58:31;100853.13;;;18.19;48.35
73455;BME280;61690;51.824;6.306;2023-03-22T01:00:57;100855.97;;;18.16;48.49
73455;BME280;61690;51.824;6.306;2023-03-22T01:03:22;100849.56;;;18.20;48.10
73455;BME280;61690;51.824;6.306;2023-03-22T01:05:50;100839.13;;;18.18;48.22
73455;BME280;61690;51.824;6.306;2023-03-22T01:08:20;100838.19;;;18.19;48.06
73455;BME280;61690;51.824;6.306;2023-03-22T01:10:47;100825.75;;;18.21;47.85
73455;BME280;61690;51.824;6.306;2023-03-22T01:13:13;100827.28;;;18.26;48.21
73455;BME280;61690;51.824;6.306;2023-03-22T01:15:39;100826.72;;;18.20;48.23
73455;BME280;61690;51.824;6.306;2023-03-22T01:18:06;100826.41;;;18.25;47.86
73455;BME280;61690;51.824;6.306;2023-03-22T01:20:32;100819.16;;;18.29;48.07
73455;BME280;61690;51.824;6.306;2023-03-22T01:22:57;100814.38;;;18.21;47.92
73455;BME280;61690;51.824;6.306;2023-03-22T01:25:23;100821.13;;;18.25;47.84
73455;BME280;61690;51.824;6.306;2023-03-22T01:27:48;100818.41;;;18.27;48.08
73455;BME280;61690;51.824;6.306;2023-03-22T01:30:14;100809.78;;;18.25;48.16
73455;BME280;61690;51.824;6.306;2023-03-22T01:32:39;100814.09;;;18.26;48.03
73455;BME280;61690;51.824;6.306;2023-03-22T01:35:05;100811.16;;;18.30;47.98
73455;BME280;61690;51.824;6.306;2023-03-22T01:37:31;100799.88;;;18.28;47.78
73455;BME280;61690;51.824;6.306;2023-03-22T01:39:57;100793.13;;;18.24;47.91
73455;BME280;61690;51.824;6.306;2023-03-22T01:42:23;100796.50;;;18.26;48.05
73455;BME280;61690;51.824;6.306;2023-03-22T01:45:16;100784.09;;;18.28;48.08
73455;BME280;61690;51.824;6.306;2023-03-22T01:47:56;100782.78;;;18.21;47.73
73455;BME280;61690;51.824;6.306;2023-03-22T01:50:24;100772.91;;;18.25;48.07
73455;BME280;61690;51.824;6.306;2023-03-22T01:52:51;100770.19;;;18.26;47.82
73455;BME280;61690;51.824;6.306;2023-03-22T01:55:17;100776.28;;;18.27;48.05
73455;BME280;61690;51.824;6.306;2023-03-22T01:57:47;100769.34;;;18.26;47.64
73455;BME280;61690;51.824;6.306;2023-03-22T02:00:13;100762.38;;;18.25;47.76
73455;BME280;61690;51.824;6.306;2023-03-22T02:02:43;100755.53;;;18.22;48.02
73455;BME280;61690;51.824;6.306;2023-03-22T02:05:10;100748.47;;;18.22;47.66
73455;BME280;61690;51.824;6.306;2023-03-22T02:07:37;100745.53;;;18.27;47.68
73455;BME280;61690;51.824;6.306;2023-03-22T02:10:05;100737.75;;;18.26;47.69
73455;BME280;61690;51.824;6.306;2023-03-22T02:15:11;100722.88;;;18.25;47.96
73455;BME280;61690;51.824;6.306;2023-03-22T02:23:57;100712.53;;;18.21;47.66
73455;BME280;61690;51.824;6.306;2023-03-22T02:29:41;100707.94;;;18.25;47.61
73455;BME280;61690;51.824;6.306;2023-03-22T02:32:27;100702.16;;;18.20;47.95
73455;BME280;61690;51.824;6.306;2023-03-22T02:35:10;100701.19;;;18.21;47.98
73455;BME280;61690;51.824;6.306;2023-03-22T02:46:18;100694.97;;;18.22;47.98
73455;BME280;61690;51.824;6.306;2023-03-22T02:51:20;100693.19;;;18.22;47.58
73455;BME280;61690;51.824;6.306;2023-03-22T02:53:51;100697.50;;;18.23;47.99
73455;BME280;61690;51.824;6.306;2023-03-22T02:58:57;100687.91;;;18.22;47.66
73455;BME280;61690;51.824;6.306;2023-03-22T03:01:29;100688.25;;;18.18;48.06
73455;BME280;61690;51.824;6.306;2023-03-22T03:04:00;100682.97;;;18.18;48.19
73455;BME280;61690;51.824;6.306;2023-03-22T03:06:28;100681.19;;;18.18;47.97
73455;BME280;61690;51.824;6.306;2023-03-22T03:08:57;100676.94;;;18.16;47.68
73455;BME280;61690;51.824;6.306;2023-03-22T03:11:26;100677.72;;;18.18;47.61
73455;BME280;61690;51.824;6.306;2023-03-22T03:13:52;100681.19;;;18.18;47.73
73455;BME280;61690;51.824;6.306;2023-03-22T03:16:20;100685.72;;;18.16;48.07
73455;BME280;61690;51.824;6.306;2023-03-22T03:18:54;100674.84;;;18.21;47.88
73455;BME280;61690;51.824;6.306;2023-03-22T03:21:28;100681.91;;;18.20;47.74
73455;BME280;61690;51.824;6.306;2023-03-22T03:24:02;100674.13;;;18.19;47.67
73455;BME280;61690;51.824;6.306;2023-03-22T03:26:49;100663.69;;;18.17;47.78
73455;BME280;61690;51.824;6.306;2023-03-22T03:29:32;100659.16;;;18.19;47.82
73455;BME280;61690;51.824;6.306;2023-03-22T03:34:45;100659.38;;;18.16;47.98
73455;BME280;61690;51.824;6.306;2023-03-22T03:37:44;100659.47;;;18.15;47.84
73455;BME280;61690;51.824;6.306;2023-03-22T03:40:15;100662.94;;;18.15;47.87
73455;BME280;61690;51.824;6.306;2023-03-22T03:42:46;100654.31;;;18.13;47.89
73455;BME280;61690;51.824;6.306;2023-03-22T03:45:13;100660.31;;;18.15;47.80
73455;BME280;61690;51.824;6.306;2023-03-22T03:47:40;100661.28;;;18.14;47.83
73455;BME280;61690;51.824;6.306;2023-03-22T03:50:08;100656.84;;;18.15;47.85
73455;BME280;61690;51.824;6.306;2023-03-22T03:52:33;100658.66;;;18.14;47.62
73455;BME280;61690;51.824;6.306;2023-03-22T03:54:59;100654.31;;;18.13;47.94
73455;BME280;61690;51.824;6.306;2023-03-22T03:57:25;100652.75;;;18.11;48.06
73455;BME280;61690;51.824;6.306;2023-03-22T03:59:50;100653.66;;;18.10;47.90
73455;BME280;61690;51.824;6.306;2023-03-22T04:02:15;100660.41;;;18.14;47.72
73455;BME280;61690;51.824;6.306;2023-03-22T04:04:41;100648.22;;;18.38;47.06
73455;BME280;61690;51.824;6.306;2023-03-22T04:07:06;100647.16;;;18.54;47.12
73455;BME280;61690;51.824;6.306;2023-03-22T04:09:34;100645.91;;;18.59;46.81
73455;BME280;61690;51.824;6.306;2023-03-22T04:12:00;100654.97;;;18.68;46.68
73455;BME280;61690;51.824;6.306;2023-03-22T04:14:25;100647.56;;;18.73;46.91
73455;BME280;61690;51.824;6.306;2023-03-22T04:16:51;100649.88;;;18.78;46.48
73455;BME280;61690;51.824;6.306;2023-03-22T04:19:17;100650.56;;;18.82;46.52
73455;BME280;61690;51.824;6.306;2023-03-22T04:21:42;100654.56;;;18.87;46.34
73455;BME280;61690;51.824;6.306;2023-03-22T04:24:08;100652.56;;;18.91;46.39
73455;BME280;61690;51.824;6.306;2023-03-22T04:26:34;100640.84;;;18.95;46.37
73455;BME280;61690;51.824;6.306;2023-03-22T04:28:59;100640.59;;;18.98;46.23
73455;BME280;61690;51.824;6.306;2023-03-22T04:31:28;100636.78;;;19.02;45.92
73455;BME280;61690;51.824;6.306;2023-03-22T04:33:53;100643.56;;;19.06;46.26
73455;BME280;61690;51.824;6.306;2023-03-22T04:36:20;100639.94;;;19.07;46.03
73455;BME280;61690;51.824;6.306;2023-03-22T04:38:46;100642.38;;;19.10;46.16
73455;BME280;61690;51.824;6.306;2023-03-22T04:41:11;100637.84;;;19.12;46.25
73455;BME280;61690;51.824;6.306;2023-03-22T04:43:37;100632.13;;;19.18;46.07
73455;BME280;61690;51.824;6.306;2023-03-22T04:46:05;100632.13;;;19.18;45.97
73455;BME280;61690;51.824;6.306;2023-03-22T04:48:30;100628.53;;;19.19;45.89
73455;BME280;61690;51.824;6.306;2023-03-22T04:50:56;100618.72;;;19.22;45.95
73455;BME280;61690;51.824;6.306;2023-03-22T04:53:22;100624.72;;;19.24;46.15
73455;BME280;61690;51.824;6.306;2023-03-22T04:55:54;100624.59;;;19.25;46.11
73455;BME280;61690;51.824;6.306;2023-03-22T04:58:24;100622.81;;;19.26;45.78
73455;BME280;61690;51.824;6.306;2023-03-22T05:00:51;100623.75;;;19.25;46.02
73455;BME280;61690;51.824;6.306;2023-03-22T05:03:18;100624.72;;;19.24;45.96
73455;BME280;61690;51.824;6.306;2023-03-22T05:05:52;100627.47;;;19.22;46.01
73455;BME280;61690;51.824;6.306;2023-03-22T05:08:19;100632.84;;;19.20;46.37
73455;BME280;61690;51.824;6.306;2023-03-22T05:10:45;100628.28;;;19.23;46.15
73455;BME280;61690;51.824;6.306;2023-03-22T05:13:10;100625.56;;;19.24;46.27
73455;BME280;61690;51.824;6.306;2023-03-22T05:15:37;100618.25;;;19.28;46.15
73455;BME280;61690;51.824;6.306;2023-03-22T05:18:03;100619.72;;;19.32;46.20
73455;BME280;61690;51.824;6.306;2023-03-22T05:20:28;100615.38;;;19.31;46.65
73455;BME280;61690;51.824;6.306;2023-03-22T05:22:54;100605.47;;;19.34;46.78
73455;BME280;61690;51.824;6.306;2023-03-22T05:25:20;100614.81;;;19.38;46.48
73455;BME280;61690;51.824;6.306;2023-03-22T05:27:46;100606.59;;;19.43;46.34
73455;BME280;61690;51.824;6.306;2023-03-22T05:30:14;100612.69;;;19.68;46.85
73455;BME280;61690;51.824;6.306;2023-03-22T05:32:40;100618.78;;;19.81;46.86
73455;BME280;61690;51.824;6.306;2023-03-22T05:35:07;100616.38;;;19.89;46.86
73455;BME280;61690;51.824;6.306;2023-03-22T05:37:32;100609.81;;;19.95;47.20
73455;BME280;61690;51.824;6.306;2023-03-22T05:39:57;100618.22;;;20.00;47.58
73455;BME280;61690;51.824;6.306;2023-03-22T05:42:23;100618.59;;;20.07;47.37
73455;BME280;61690;51.824;6.306;2023-03-22T05:44:48;100619.81;;;20.14;47.45
73455;BME280;61690;51.824;6.306;2023-03-22T05:47:13;100617.88;;;20.16;47.27
73455;BME280;61690;51.824;6.306;2023-03-22T05:49:38;100614.88;;;20.21;47.51
73455;BME280;61690;51.824;6.306;2023-03-22T05:52:04;100611.91;;;20.25;47.38
73455;BME280;61690;51.824;6.306;2023-03-22T05:54:30;100605.53;;;20.28;47.76
73455;BME280;61690;51.824;6.306;2023-03-22T05:56:55;100609.50;;;20.33;48.30
73455;BME280;61690;51.824;6.306;2023-03-22T05:59:20;100612.03;;;20.35;47.97
73455;BME280;61690;51.824;6.306;2023-03-22T06:01:46;100614.56;;;20.36;47.90
73455;BME280;61690;51.824;6.306;2023-03-22T06:04:11;100612.00;;;20.12;47.46
73455;BME280;61690;51.824;6.306;2023-03-22T06:06:36;100607.78;;;20.21;47.50
73455;BME280;61690;51.824;6.306;2023-03-22T06:09:02;100609.13;;;20.27;47.64
73455;BME280;61690;51.824;6.306;2023-03-22T06:11:28;100605.06;;;20.34;47.74
73455;BME280;61690;51.824;6.306;2023-03-22T06:13:57;100596.53;;;20.30;47.41
73455;BME280;61690;51.824;6.306;2023-03-22T06:16:23;100597.50;;;20.29;48.05
73455;BME280;61690;51.824;6.306;2023-03-22T06:18:48;100603.63;;;20.30;47.80
73455;BME280;61690;51.824;6.306;2023-03-22T06:21:13;100597.72;;;20.26;47.93
73455;BME280;61690;51.824;6.306;2023-03-22T06:23:39;100598.81;;;20.24;48.24
73455;BME280;61690;51.824;6.306;2023-03-22T06:26:04;100602.41;;;20.23;48.18
73455;BME280;61690;51.824;6.306;2023-03-22T06:28:29;100596.06;;;20.25;48.27
73455;BME280;61690;51.824;6.306;2023-03-22T06:30:55;100605.03;;;20.23;48.33
73455;BME280;61690;51.824;6.306;2023-03-22T06:33:20;100598.69;;;20.25;47.98
73455;BME280;61690;51.824;6.306;2023-03-22T06:35:45;100610.31;;;20.23;48.24
73455;BME280;61690;51.824;6.306;2023-03-22T06:38:11;100608.66;;;20.22;48.29
73455;BME280;61690;51.824;6.306;2023-03-22T06:40:36;100606.13;;;20.20;48.51
73455;BME280;61690;51.824;6.306;2023-03-22T06:43:02;100603.25;;;20.23;49.09
73455;BME280;61690;51.824;6.306;2023-03-22T06:45:28;100608.16;;;20.16;48.83
73455;BME280;61690;51.824;6.306;2023-03-22T06:47:57;100611.19;;;20.23;49.11
73455;BME280;61690;51.824;6.306;2023-03-22T06:50:22;100607.06;;;20.19;49.32
73455;BME280;61690;51.824;6.306;2023-03-22T06:52:48;100610.69;;;20.18;49.76
73455;BME280;61690;51.824;6.306;2023-03-22T06:55:13;100602.66;;;20.20;49.64
73455;BME280;61690;51.824;6.306;2023-03-22T06:57:38;100600.59;;;20.12;49.80
73455;BME280;61690;51.824;6.306;2023-03-22T07:00:04;100601.66;;;20.09;50.05
73455;BME280;61690;51.824;6.306;2023-03-22T07:02:30;100607.56;;;20.13;49.92
73455;BME280;61690;51.824;6.306;2023-03-22T07:04:55;100601.78;;;20.19;50.16
73455;BME280;61690;51.824;6.306;2023-03-22T07:07:20;100593.16;;;20.17;49.87
73455;BME280;61690;51.824;6.306;2023-03-22T07:09:45;100596.16;;;20.12;49.97
73455;BME280;61690;51.824;6.306;2023-03-22T07:12:11;100597.81;;;20.13;50.28
73455;BME280;61690;51.824;6.306;2023-03-22T07:14:36;100597.00;;;20.13;49.97
73455;BME280;61690;51.824;6.306;2023-03-22T07:17:02;100599.75;;;20.11;50.08
73455;BME280;61690;51.824;6.306;2023-03-22T07:19:27;100595.06;;;20.15;50.04
73455;BME280;61690;51.824;6.306;2023-03-22T07:21:52;100596.75;;;20.16;49.79
73455;BME280;61690;51.824;6.306;2023-03-22T07:24:18;100601.06;;;20.17;50.06
73455;BME280;61690;51.824;6.306;2023-03-22T07:26:43;100601.22;;;20.15;50.22
73455;BME280;61690;51.824;6.306;2023-03-22T07:29:09;100604.69;;;20.16;50.07
73455;BME280;61690;51.824;6.306;2023-03-22T07:31:34;100608.38;;;20.13;50.46
73455;BME280;61690;51.824;6.306;2023-03-22T07:34:01;100606.59;;;20.14;50.29
73455;BME280;61690;51.824;6.306;2023-03-22T07:36:27;100597.97;;;20.12;50.38
73455;BME280;61690;51.824;6.306;2023-03-22T07:38:52;100601.03;;;20.06;50.37
73455;BME280;61690;51.824;6.306;2023-03-22T07:41:17;100592.75;;;19.88;49.81
73455;BME280;61690;51.824;6.306;2023-03-22T07:43:43;100605.44;;;19.83;50.24
73455;BME280;61690;51.824;6.306;2023-03-22T07:46:09;100608.44;;;19.78;50.19
73455;BME280;61690;51.824;6.306;2023-03-22T07:48:34;100606.28;;;19.59;50.19
73455;BME280;61690;51.824;6.306;2023-03-22T07:51:00;100606.59;;;19.43;50.21
73455;BME280;61690;51.824;6.306;2023-03-22T07:53:26;100599.00;;;19.63;50.35
73455;BME280;61690;51.824;6.306;2023-03-22T07:55:52;100600.97;;;19.72;50.31
73455;BME280;61690;51.824;6.306;2023-03-22T07:58:17;100602.22;;;19.79;50.00
73455;BME280;61690;51.824;6.306;2023-03-22T08:00:42;100596.78;;;19.81;50.29
73455;BME280;61690;51.824;6.306;2023-03-22T08:03:10;100605.78;;;19.78;50.45
73455;BME280;61690;51.824;6.306;2023-03-22T08:05:39;100598.59;;;19.80;50.48
73455;BME280;61690;51.824;6.306;2023-03-22T08:08:05;100600.28;;;19.81;50.83
73455;BME280;61690;51.824;6.306;2023-03-22T08:10:30;100606.31;;;19.83;50.64
73455;BME280;61690;51.824;6.306;2023-03-22T08:13:17;100609.88;;;19.82;50.74
73455;BME280;61690;51.824;6.306;2023-03-22T08:15:42;100613.31;;;19.71;50.68
73455;BME280;61690;51.824;6.306;2023-03-22T08:18:07;100610.56;;;19.73;50.95
73455;BME280;61690;51.824;6.306;2023-03-22T08:20:33;100611.44;;;19.73;51.26
73455;BME280;61690;51.824;6.306;2023-03-22T08:22:58;100608.91;;;19.72;51.06
73455;BME280;61690;51.824;6.306;2023-03-22T08:25:24;100596.63;;;19.71;51.21
73455;BME280;61690;51.824;6.306;2023-03-22T08:27:49;100606.16;;;19.73;51.13
73455;BME280;61690;51.824;6.306;2023-03-22T08:30:14;100605.50;;;19.70;51.38
73455;BME280;61690;51.824;6.306;2023-03-22T08:32:40;100602.97;;;19.92;51.40
73455;BME280;61690;51.824;6.306;2023-03-22T08:35:06;100596.75;;;20.05;51.11
73455;BME280;61690;51.824;6.306;2023-03-22T08:37:31;100613.31;;;20.07;51.06
73455;BME280;61690;51.824;6.306;2023-03-22T08:39:57;100616.66;;;20.09;51.22
73455;BME280;61690;51.824;6.306;2023-03-22T08:42:22;100608.59;;;19.99;51.04
73455;BME280;61690;51.824;6.306;2023-03-22T08:44:50;100607.16;;;19.95;51.12
73455;BME280;61690;51.824;6.306;2023-03-22T08:47:16;100614.69;;;19.88;51.59
73455;BME280;61690;51.824;6.306;2023-03-22T08:49:42;100615.78;;;19.86;51.64
73455;BME280;61690;51.824;6.306;2023-03-22T08:52:07;100617.28;;;19.77;51.71
73455;BME280;61690;51.824;6.306;2023-03-22T08:54:32;100615.84;;;19.73;51.74
73455;BME280;61690;51.824;6.306;2023-03-22T08:56:58;100607.16;;;19.71;51.91
73455;BME280;61690;51.824;6.306;2023-03-22T08:59:23;100608.13;;;19.70;51.87
73455;BME280;61690;51.824;6.306;2023-03-22T09:01:49;100598.53;;;19.69;52.08
73455;BME280;61690;51.824;6.306;2023-03-22T09:04:14;100599.59;;;19.66;52.11
73455;BME280;61690;51.824;6.306;2023-03-22T09:06:39;100595.16;;;19.67;52.45
73455;BME280;61690;51.824;6.306;2023-03-22T09:09:08;100593.25;;;19.69;52.00
73455;BME280;61690;51.824;6.306;2023-03-22T09:11:33;100588.94;;;19.68;52.20
73455;BME280;61690;51.824;6.306;2023-03-22T09:14:01;100595.16;;;19.67;52.16
73455;BME280;61690;51.824;6.306;2023-03-22T09:16:26;100589.66;;;19.70;52.13
73455;BME280;61690;51.824;6.306;2023-03-22T09:18:51;100581.88;;;19.68;52.44
73455;BME280;61690;51.824;6.306;2023-03-22T09:21:16;100578.06;;;19.72;52.42
73455;BME280;61690;51.824;6.306;2023-03-22T09:23:42;100581.75;;;19.70;52.00
73455;BME280;61690;51.824;6.306;2023-03-22T09:26:11;100573.84;;;19.70;52.14
73455;BME280;61690;51.824;6.306;2023-03-22T09:28:36;100571.59;;;19.76;52.60
73455;BME280;61690;51.824;6.306;2023-03-22T09:31:05;100568.38;;;19.84;52.23
73455;BME280;61690;51.824;6.306;2023-03-22T09:33:31;100568.88;;;19.89;52.27
73455;BME280;61690;51.824;6.306;2023-03-22T09:35:56;100576.28;;;19.84;52.13
73455;BME280;61690;51.824;6.306;2023-03-22T09:38:23;100568.44;;;19.36;49.68
73455;BME280;61690;51.824;6.306;2023-03-22T09:40:54;100571.00;;;19.49;50.69
73455;BME280;61690;51.824;6.306;2023-03-22T09:43:26;100572.09;;;19.57;51.29
73455;BME280;61690;51.824;6.306;2023-03-22T09:45:53;100574.41;;;19.62;51.46
73455;BME280;61690;51.824;6.306;2023-03-22T09:48:27;100574.06;;;19.67;51.30
73455;BME280;61690;51.824;6.306;2023-03-22T09:50:55;100574.16;;;19.65;51.69
73455;BME280;61690;51.824;6.306;2023-03-22T09:53:22;100576.69;;;19.67;51.23
73455;BME280;61690;51.824;6.306;2023-03-22T10:01:05;100574.13;;;19.78;51.56
73455;BME280;61690;51.824;6.306;2023-03-22T10:04:35;100580.78;;;19.71;51.74
73455;BME280;61690;51.824;6.306;2023-03-22T10:06:45;100572.94;;;19.82;51.66
73455;BME280;61690;51.824;6.306;2023-03-22T10:09:28;100567.66;;;19.82;51.87
73455;BME280;61690;51.824;6.306;2023-03-22T10:12:00;100567.91;;;19.90;51.43
73455;BME280;61690;51.824;6.306;2023-03-22T10:14:37;100559.00;;;19.80;51.83
73455;BME280;61690;51.824;6.306;2023-03-22T10:17:07;100560.44;;;19.84;51.77
73455;BME280;61690;51.824;6.306;2023-03-22T10:19:48;100565.16;;;19.92;51.64
73455;BME280;61690;51.824;6.306;2023-03-22T10:22:17;100562.53;;;20.03;51.68
73455;BME280;61690;51.824;6.306;2023-03-22T10:24:47;100562.78;;;20.00;51.91
73455;BME280;61690;51.824;6.306;2023-03-22T10:27:17;100568.78;;;20.02;52.19
73455;BME280;61690;51.824;6.306;2023-03-22T10:29:49;100564.31;;;19.91;52.18
73455;BME280;61690;51.824;6.306;2023-03-22T10:32:18;100559.00;;;19.80;52.15
73455;BME280;61690;51.824;6.306;2023-03-22T10:34:44;100563.38;;;19.68;52.69
73455;BME280;61690;51.824;6.306;2023-03-22T10:37:14;100558.69;;;19.61;52.50
73455;BME280;61690;51.824;6.306;2023-03-22T10:39:44;100559.06;;;19.56;52.60
73455;BME280;61690;51.824;6.306;2023-03-22T10:42:14;100557.47;;;19.53;52.56
73455;BME280;61690;51.824;6.306;2023-03-22T10:44:49;100553.16;;;19.52;52.47
73455;BME280;61690;51.824;6.306;2023-03-22T10:47:27;100561.28;;;19.49;52.52
73455;BME280;61690;51.824;6.306;2023-03-22T10:49:54;100555.31;;;19.58;51.99
73455;BME280;61690;51.824;6.306;2023-03-22T10:52:35;100549.13;;;19.71;51.34
73455;BME280;61690;51.824;6.306;2023-03-22T10:55:08;100550.56;;;19.64;51.92
73455;BME280;61690;51.824;6.306;2023-03-22T10:57:34;100560.13;;;19.65;52.15
73455;BME280;61690;51.824;6.306;2023-03-22T10:59:59;100556.78;;;19.63;52.06
73455;BME280;61690;51.824;6.306;2023-03-22T11:02:30;100564.69;;;19.63;52.01
73455;BME280;61690;51.824;6.306;2023-03-22T11:05:01;100569.13;;;19.62;51.89
73455;BME280;61690;51.824;6.306;2023-03-22T11:07:37;100570.75;;;19.52;51.90
73455;BME280;61690;51.824;6.306;2023-03-22T11:12:28;100573.97;;;19.44;52.12
73455;BME280;61690;51.824;6.306;2023-03-22T11:14:54;100576.75;;;19.43;52.08
73455;BME280;61690;51.824;6.306;2023-03-22T11:17:23;100577.69;;;19.42;51.76
73455;BME280;61690;51.824;6.306;2023-03-22T11:19:57;100581.41;;;19.39;52.14
73455;BME280;61690;51.824;6.306;2023-03-22T11:22:30;100576.97;;;19.39;51.49
73455;BME280;61690;51.824;6.306;2023-03-22T11:24:58;100577.06;;;19.38;51.58
73455;BME280;61690;51.824;6.306;2023-03-22T11:27:29;100578.03;;;19.37;51.67
73455;BME280;61690;51.824;6.306;2023-03-22T11:30:07;100578.03;;;19.37;51.71
73455;BME280;61690;51.824;6.306;2023-03-22T11:32:41;100587.00;;;19.34;51.65
73455;BME280;61690;51.824;6.306;2023-03-22T11:35:16;100584.34;;;19.34;51.54
73455;BME280;61690;51.824;6.306;2023-03-22T11:37:52;100584.47;;;19.33;51.25
73455;BME280;61690;51.824;6.306;2023-03-22T11:40:23;100585.97;;;19.48;50.53
73455;BME280;61690;51.824;6.306;2023-03-22T11:42:55;100580.47;;;19.51;50.90
73455;BME280;61690;51.824;6.306;2023-03-22T11:45:26;100587.44;;;19.52;51.12
73455;BME280;61690;51.824;6.306;2023-03-22T11:47:54;100583.00;;;19.53;50.76
73455;BME280;61690;51.824;6.306;2023-03-22T11:50:28;100585.53;;;19.54;51.11
73455;BME280;61690;51.824;6.306;2023-03-22T11:52:55;100587.00;;;19.58;50.90
73455;BME280;61690;51.824;6.306;2023-03-22T11:55:22;100573.78;;;19.58;51.01
73455;BME280;61690;51.824;6.306;2023-03-22T11:57:48;100569.78;;;19.77;51.01
73455;BME280;61690;51.824;6.306;2023-03-22T12:00:22;100571.66;;;19.99;50.54
73455;BME280;61690;51.824;6.306;2023-03-22T12:02:53;100569.63;;;20.14;49.68
73455;BME280;61690;51.824;6.306;2023-03-22T12:05:30;100572.63;;;20.21;50.03
73455;BME280;61690;51.824;6.306;2023-03-22T12:08:02;100574.00;;;19.80;48.02
73455;BME280;61690;51.824;6.306;2023-03-22T12:10:32;100574.13;;;19.54;48.79
73455;BME280;61690;51.824;6.306;2023-03-22T12:13:06;100565.38;;;19.53;48.88
73455;BME280;61690;51.824;6.306;2023-03-22T12:15:37;100573.06;;;19.56;49.08
73455;BME280;61690;51.824;6.306;2023-03-22T12:18:24;100570.16;;;19.48;48.89
73455;BME280;61690;51.824;6.306;2023-03-22T12:20:57;100582.38;;;19.49;49.17
73455;BME280;61690;51.824;6.306;2023-03-22T12:23:25;100579.75;;;19.49;49.00
73455;BME280;61690;51.824;6.306;2023-03-22T12:28:22;100572.75;;;19.96;48.89
73455;BME280;61690;51.824;6.306;2023-03-22T12:30:52;100571.06;;;20.18;48.08
73455;BME280;61690;51.824;6.306;2023-03-22T12:33:48;100565.19;;;20.26;48.08
73455;BME280;61690;51.824;6.306;2023-03-22T12:36:18;100570.00;;;20.32;47.68
73455;BME280;61690;51.824;6.306;2023-03-22T12:38:57;100563.78;;;20.33;47.76
73455;BME280;61690;51.824;6.306;2023-03-22T12:43:58;100553.16;;;20.55;48.23
73455;BME280;61690;51.824;6.306;2023-03-22T12:46:28;100544.81;;;20.62;47.80
73455;BME280;61690;51.824;6.306;2023-03-22T12:49:01;100548.50;;;20.70;47.71
73455;BME280;61690;51.824;6.306;2023-03-22T12:51:27;100548.16;;;20.75;47.67
73455;BME280;61690;51.824;6.306;2023-03-22T12:53:55;100558.34;;;20.80;47.56
73455;BME280;61690;51.824;6.306;2023-03-22T12:56:28;100546.44;;;20.85;47.92
73455;BME280;61690;51.824;6.306;2023-03-22T12:59:01;100550.03;;;20.84;48.07
73455;BME280;61690;51.824;6.306;2023-03-22T13:01:43;100561.19;;;20.88;47.95
73455;BME280;61690;51.824;6.306;2023-03-22T13:04:29;100559.78;;;20.84;48.08
73455;BME280;61690;51.824;6.306;2023-03-22T13:09:50;100550.94;;;20.62;48.59
73455;BME280;61690;51.824;6.306;2023-03-22T13:33:01;100553.56;;;20.73;47.86
73455;BME280;61690;51.824;6.306;2023-03-22T13:35:58;100549.47;;;20.58;48.72
73455;BME280;61690;51.824;6.306;2023-03-22T13:38:27;100543.69;;;20.53;48.85
73455;BME280;61690;51.824;6.306;2023-03-22T13:43:28;100534.34;;;20.37;48.23
73455;BME280;61690;51.824;6.306;2023-03-22T13:51:25;100548.16;;;20.30;48.82
73455;BME280;61690;51.824;6.306;2023-03-22T13:59:10;100540.09;;;20.09;48.21
73455;BME280;61690;51.824;6.306;2023-03-22T14:01:42;100546.69;;;20.03;48.57
73455;BME280;61690;51.824;6.306;2023-03-22T14:04:15;100551.47;;;19.98;48.28
73455;BME280;61690;51.824;6.306;2023-03-22T14:06:56;100548.09;;;19.73;48.41
73455;BME280;61690;51.824;6.306;2023-03-22T14:09:32;100545.03;;;19.67;49.08
73455;BME280;61690;51.824;6.306;2023-03-22T14:12:15;100541.88;;;19.86;48.81
73455;BME280;61690;51.824;6.306;2023-03-22T14:14:45;100548.59;;;19.90;48.82